메인 페이지
METAR-TAF:

METAR-TAF

공항 :

마리스칼 수크레 국제공항

키토, 에콰도르

위도: 0-06-48S, 경도: 78-21-31W, 고도: 2400m

현재 날씨관측

예보는 49분 전, 04:00시(UTC)에 발표되었습니다.
여러 방향의 바람 2kt
온도 14°C
습도 94%
기압 1029 hPa
시정 10km 이상
고도 2300ft 상공 구름 조금
고도 8000ft 상공 구름 많음

METAR: SEQM 230400Z VRB02KT 9999 FEW023 BKN080 14/13 Q1029 NOSIG RMK A3039

시각: 23:49 (04:49 UTC)

예보

예보는 5 시간 59분 전, 22:50시(UTC)에 발표되었습니다.
예보 대상 시간: 23일 00시부터 23일 24시까지 (UTC)
북북동3kt
시정 10km 이상
고도 1000ft 상공 구름 조금
고도 2000ft 상공 구름 많음
일시적
23일 06시부터 23일 09시까지 (UTC)
시정: 6000m
고도 500ft 상공 구름 많음
곳곳에 안개
전환 중
23일 11시부터 23일 13시까지 (UTC)
여러 방향의 바람 3kt
고도 2300ft 상공 구름 보통
고도 8000ft 상공 구름 많음
전환 중
23일 16시부터 23일 18시까지 (UTC)
12kt
고도 3000ft 상공 구름 조금
고도 10000ft 상공 구름 보통
일시적
23일 20시부터 23일 23시까지 (UTC)
고도 3000ft 상공 구름 많음

TAF: SEQM 222250Z 2300/2324 03003KT 9999 FEW010 BKN020 TEMPO 2306/2309 6000 BCFG BKN005 BECMG 2311/2313 VRB03KT SCT023 BKN080 BECMG 2316/2318 36012KT FEW030 SCT100 TEMPO 2320/2323 BKN030 TX25/2319Z TN11/2311Z

4,000개 이상의 공항 관측 자료 및 예보 (METAR 및 TAF 보고).

지도상에서 검색 가능한 기상관측소가 노란 점과 빨간 점으로 표시되어 있습니다.

기상관측소 명을 보려면 표시 위로 마우스를 이동하세요.

날씨 관측과 예보를 보려면 클릭하세요.

지도 변경 : 확대하려면 엑스 표시가 있는 녹색 버튼, 축소하려면 빼기 표시가 있는 녹색 버튼, 다음 페이지의 지도를 보려면 녹색 화살표를 클릭하세요.


METAR-TAF: